Clio, South Carolina
Current Conditions -  °F | °C
As of 5:15 AM on Friday 24 Oct 2014 (Local Time) from KBBP Reporting Station
Clear Clear  
Wind Chill: 45°   Ceiling: Unl
Heat Index: 45°   Visibility: 7mi
Dew Point: 45°   Wind: 3mph
Humidity: 100%   Direction: 320°NW
Pressure: 30.03"   Gusts: NA
Location:  34.58°N, 79.55°W
Report Text: KBBP 240915Z AUTO 32003KT 7SM CLR 07/07 A3003 RMK AO2
Loading
Personal Weather Stations






























Interactive Weather Map
Tropical Storm Tracking
New forecast layout! Learn more

10-Day Weather Forecast

Advertisements
Track Severe Weather on mobile